»·PEaware :: DAL2445 KLAX-KLAS

DAL2445 :: KLAX-KLAS

FLIGHT INFORMATION

Flight Status: Arrived
Operator:
Delta Air Lines
More flights by this operator :: More flights under this callsign
Pilot: Chris H. (15401)
Aircraft: BOEING 737-800
(B738)
More flights by this aircraft type
Origin: KLAX Los Angeles Intl
United States
Destination: KLAS McCarran Intl
United States
More flights between these airports :: More routes between these airports
Route: +OSHNN8 MISEN KEPEC6
File this flight plan on PilotEdge
Remarks:
Altitude:
(Current/Filed)
37,000ft
Speed:
(Current/Filed)
467kts
Departed: 08-Oct-18 07:29 PM
Arrived: 08-Oct-18 08:24 PM
Distance/Time
Traveled:
205nm/0:54
Distance/Time
To Go:
Arrived

Flight Plot

Page will automatically refresh every two minutes.

Flight plan parsing failed; only flown route is shown


Map Options




Map Legend


Flown Route
Filed Route
Departure Airport
Arrival Airport
Navaid (VOR, NDB)
Fix

Horizontal Profiles

Position Reports

Time Latitude Longitude Heading Altitude Ground
Speed
08-Oct-18 19:10 33.940497 -118.405030 84 134ft 0kts
08-Oct-18 19:11 33.940497 -118.405030 84 134ft 0kts
08-Oct-18 19:12 33.940497 -118.405030 84 134ft 0kts
08-Oct-18 19:13 33.940497 -118.405030 84 134ft 0kts
08-Oct-18 19:14 33.940497 -118.405030 84 134ft 0kts
08-Oct-18 19:15 33.940497 -118.405030 84 134ft 0kts
08-Oct-18 19:16 33.940497 -118.405030 84 134ft 0kts
08-Oct-18 19:17 33.940497 -118.405030 84 134ft 0kts
08-Oct-18 19:18 33.940497 -118.405030 84 134ft 0kts
08-Oct-18 19:19 33.940453 -118.405605 93 134ft 2kts
08-Oct-18 19:20 33.940698 -118.405978 160 134ft 0kts
08-Oct-18 19:21 33.940698 -118.405978 160 134ft 0kts
08-Oct-18 19:22 33.940698 -118.405978 160 134ft 0kts
08-Oct-18 19:23 33.940597 -118.405909 141 134ft 6kts
08-Oct-18 19:24 33.940195 -118.405618 163 134ft 0kts
08-Oct-18 19:25 33.938448 -118.403797 82 134ft 21kts
08-Oct-18 19:26 33.939256 -118.396197 80 134ft 20kts
08-Oct-18 19:27 33.939998 -118.388467 86 134ft 26kts
08-Oct-18 19:28 33.940755 -118.381126 81 134ft 9kts
08-Oct-18 19:29 33.940730 -118.380656 120 134ft 0kts
08-Oct-18 19:30 33.940728 -118.380652 120 134ft 0kts
08-Oct-18 19:31 33.938559 -118.393293 262 134ft 143kts
08-Oct-18 19:32 33.931329 -118.454697 250 2823ft 202kts
08-Oct-18 19:33 33.881261 -118.494839 187 5032ft 247kts
08-Oct-18 19:34 33.806643 -118.505513 187 7808ft 283kts
08-Oct-18 19:35 33.725623 -118.515729 176 10764ft 308kts
08-Oct-18 19:36 33.663060 -118.440464 96 12021ft 376kts
08-Oct-18 19:37 33.648102 -118.312551 93 14465ft 398kts
08-Oct-18 19:38 33.659954 -118.182553 51 16969ft 394kts
08-Oct-18 19:39 33.740294 -118.095007 33 19394ft 393kts
08-Oct-18 19:40 33.828552 -118.014908 31 21509ft 401kts
08-Oct-18 19:41 33.919005 -117.933187 32 22869ft 410kts
08-Oct-18 19:42 34.009763 -117.850304 31 24559ft 412kts
08-Oct-18 19:43 34.099177 -117.761442 39 26040ft 428kts
08-Oct-18 19:44 34.176422 -117.648953 43 27315ft 440kts
08-Oct-18 19:45 34.254132 -117.532933 43 28474ft 448kts
08-Oct-18 19:46 34.332153 -117.416380 42 30061ft 444kts
08-Oct-18 19:47 34.407841 -117.303434 42 32107ft 431kts
08-Oct-18 19:48 34.483870 -117.189010 42 32920ft 442kts
08-Oct-18 19:49 34.561306 -117.072954 41 32939ft 440kts
08-Oct-18 19:50 34.639692 -116.958860 41 32933ft 438kts
08-Oct-18 19:51 34.717276 -116.846010 41 32909ft 435kts
08-Oct-18 19:52 34.794205 -116.733031 41 32114ft 429kts
08-Oct-18 19:53 34.871228 -116.628791 32 29074ft 419kts
08-Oct-18 19:54 34.961758 -116.540675 31 26060ft 412kts
08-Oct-18 19:55 35.048931 -116.455931 32 24408ft 380kts
08-Oct-18 19:56 35.125621 -116.376709 37 23832ft 352kts
08-Oct-18 19:57 35.195023 -116.288639 39 22116ft 366kts
08-Oct-18 19:58 35.265142 -116.199839 39 20780ft 361kts
08-Oct-18 19:59 35.334970 -116.111570 40 19432ft 358kts
08-Oct-18 20:00 35.404043 -116.024716 40 18230ft 354kts
08-Oct-18 20:01 35.472253 -115.938718 41 16952ft 348kts
08-Oct-18 20:02 35.538969 -115.854200 41 15671ft 342kts
08-Oct-18 20:03 35.603916 -115.771468 42 14409ft 326kts
08-Oct-18 20:04 35.665045 -115.693375 42 13234ft 309kts
08-Oct-18 20:05 35.722073 -115.620520 42 13032ft 287kts
08-Oct-18 20:06 35.789415 -115.574385 5 13093ft 286kts
08-Oct-18 20:07 35.860705 -115.569699 1 13031ft 284kts
08-Oct-18 20:08 35.934427 -115.565635 1 13074ft 286kts
08-Oct-18 20:09 35.992619 -115.506808 66 12421ft 305kts
08-Oct-18 20:10 36.020402 -115.409345 65 11399ft 297kts
08-Oct-18 20:11 36.027311 -115.313581 93 10329ft 283kts
08-Oct-18 20:12 36.019677 -115.217454 93 9196ft 277kts
08-Oct-18 20:13 36.013289 -115.124824 93 8402ft 260kts
08-Oct-18 20:14 36.007911 -115.039345 92 8078ft 237kts
08-Oct-18 20:15 36.003322 -114.962299 92 8052ft 230kts
08-Oct-18 20:16 35.998299 -114.879911 92 8037ft 245kts
08-Oct-18 20:17 35.993084 -114.796140 92 8035ft 236kts
08-Oct-18 20:18 36.028390 -114.758474 353 7775ft 182kts
08-Oct-18 20:19 36.065143 -114.791921 275 6704ft 193kts
08-Oct-18 20:20 36.066502 -114.858518 272 5685ft 192kts
08-Oct-18 20:21 36.074709 -114.922318 272 5176ft 188kts
08-Oct-18 20:22 36.073888 -114.975396 271 4500ft 180kts
08-Oct-18 20:23 36.073777 -115.037752 271 3580ft 170kts
08-Oct-18 20:24 36.073605 -115.093123 270 2791ft 159kts
08-Oct-18 20:25 36.073641 -115.146080 270 2189ft 121kts
08-Oct-18 20:26 36.074922 -115.155875 339 2189ft 11kts
08-Oct-18 20:27 36.078001 -115.157421 80 2189ft 16kts
08-Oct-18 20:28 36.078024 -115.152358 89 2189ft 10kts
08-Oct-18 20:29 36.077726 -115.146530 93 2189ft 19kts
08-Oct-18 20:30 36.078405 -115.141588 358 2189ft 17kts
08-Oct-18 20:31 36.080272 -115.140669 95 2189ft 0kts
08-Oct-18 20:32 36.080272 -115.140664 95 2189ft 0kts
08-Oct-18 20:33 36.080272 -115.140662 95 2189ft 0kts
08-Oct-18 20:34 36.080272 -115.140662 95 2189ft 0kts
08-Oct-18 20:35 36.080272 -115.140662 95 2189ft 0kts
08-Oct-18 20:36 36.080272 -115.140662 95 2189ft 0kts
08-Oct-18 20:37 36.080272 -115.140662 95 2189ft 0kts
08-Oct-18 20:38 36.080272 -115.140662 95 2189ft 0kts
08-Oct-18 20:39 36.080272 -115.140662 95 2189ft 0kts
08-Oct-18 20:40 36.080272 -115.140662 95 2189ft 0kts

Navigation Log

Ident Type
Flight plan parsing failed, navigation log unavailable